Time;durP1;ratioP1;P1;durP2;ratioP2;P2;SDS_P1;SDS_P2;PMS_P1;PMS_P2;Temp;Humidity;BMP_temperature;BMP_pressure;BME280_temperature;BME280_humidity;BME280_pressure;Samples;Min_cycle;Max_cycle;Signal;HPM_P1;HPM_P2
2023/05/06 00:01:03;;;;;;;12.80;9.80;;;11.70;99.90;;;;;;5071607;28;20080;-59
2023/05/06 00:03:29;;;;;;;14.82;9.77;;;11.70;99.90;;;;;;5070023;28;20129;-59
2023/05/06 00:05:55;;;;;;;13.82;10.73;;;11.60;99.90;;;;;;5054493;28;20123;-59
2023/05/06 00:08:21;;;;;;;12.60;8.98;;;11.60;99.90;;;;;;5072109;28;20041;-59
2023/05/06 00:10:46;;;;;;;13.13;9.40;;;11.50;99.90;;;;;;5070430;28;20454;-59
2023/05/06 00:13:12;;;;;;;12.43;8.85;;;11.50;99.90;;;;;;5070989;28;20044;-59
2023/05/06 00:15:38;;;;;;;10.18;7.90;;;11.50;99.90;;;;;;5069890;28;20123;-59
2023/05/06 00:18:05;;;;;;;10.23;7.30;;;11.50;99.90;;;;;;5072419;28;20040;-59
2023/05/06 00:20:31;;;;;;;12.82;9.55;;;11.40;99.90;;;;;;5056511;28;20123;-59
2023/05/06 00:22:58;;;;;;;13.02;10.18;;;11.30;99.90;;;;;;5049767;28;20124;-59
2023/05/06 00:25:23;;;;;;;13.38;9.38;;;11.30;99.90;;;;;;5051675;28;20041;-59
2023/05/06 00:27:49;;;;;;;14.65;10.43;;;11.30;99.90;;;;;;5052189;28;20504;-59
2023/05/06 00:30:14;;;;;;;11.10;9.10;;;11.30;99.90;;;;;;5050171;28;20036;-59
2023/05/06 00:32:40;;;;;;;11.02;7.65;;;11.30;99.90;;;;;;5050611;28;20132;-59
2023/05/06 00:35:06;;;;;;;11.45;8.30;;;11.30;99.90;;;;;;5050670;28;20044;-59
2023/05/06 00:37:32;;;;;;;13.60;10.57;;;11.30;99.90;;;;;;5049709;28;20552;-59
2023/05/06 00:39:57;;;;;;;15.57;10.90;;;11.20;99.90;;;;;;5050933;28;20192;-59
2023/05/06 00:42:23;;;;;;;11.63;8.82;;;11.20;99.90;;;;;;5033473;28;20037;-59
2023/05/06 00:44:49;;;;;;;10.40;7.50;;;11.30;99.90;;;;;;5050041;28;20044;-59
2023/05/06 00:47:16;;;;;;;10.48;6.97;;;11.30;99.90;;;;;;5033406;28;20037;-61
2023/05/06 00:49:43;;;;;;;11.05;8.55;;;11.30;99.90;;;;;;5050358;28;20494;-59
2023/05/06 00:52:08;;;;;;;18.27;12.88;;;11.30;99.90;;;;;;5066961;28;20047;-59
2023/05/06 00:54:34;;;;;;;13.38;9.95;;;11.30;99.90;;;;;;5051284;28;20045;-59
2023/05/06 00:57:01;;;;;;;12.90;9.18;;;11.30;99.90;;;;;;5050601;28;20162;-59
2023/05/06 00:59:28;;;;;;;15.30;10.73;;;11.30;99.90;;;;;;5049248;28;20052;-59
2023/05/06 01:01:53;;;;;;;15.65;11.27;;;11.40;99.90;;;;;;5050841;28;20041;-59
2023/05/06 01:04:21;;;;;;;16.35;12.25;;;11.30;99.90;;;;;;5050187;28;20043;-59
2023/05/06 01:07:03;;;;;;;13.02;9.30;;;11.40;99.90;;;;;;5049704;28;20529;-59
2023/05/06 01:09:47;;;;;;;13.77;11.50;;;11.40;99.90;;;;;;5049925;28;20032;-59
2023/05/06 01:12:26;;;;;;;14.15;11.18;;;11.40;99.90;;;;;;5032712;28;20087;-59
2023/05/06 01:15:13;;;;;;;13.98;11.38;;;11.50;99.90;;;;;;5050545;28;20115;-59
2023/05/06 01:17:43;;;;;;;13.32;10.38;;;11.50;99.90;;;;;;5033315;28;20063;-59
2023/05/06 01:20:10;;;;;;;16.17;11.48;;;11.40;99.90;;;;;;5049887;28;20041;-59
2023/05/06 01:22:37;;;;;;;17.70;12.73;;;11.50;99.90;;;;;;5049880;28;20080;-59
2023/05/06 01:25:04;;;;;;;17.70;12.20;;;11.50;99.90;;;;;;5051602;28;20041;-59
2023/05/06 01:27:29;;;;;;;18.25;12.02;;;11.50;99.90;;;;;;5049205;28;20077;-59
2023/05/06 01:29:56;;;;;;;15.23;10.40;;;11.50;99.90;;;;;;5050382;28;20465;-59
2023/05/06 01:32:27;;;;;;;18.77;13.98;;;11.50;99.90;;;;;;5049636;28;20055;-59
2023/05/06 01:35:14;;;;;;;12.77;9.98;;;11.50;99.90;;;;;;5053956;28;20041;-59
2023/05/06 01:38:10;;;;;;;13.85;10.63;;;11.50;99.90;;;;;;5036944;28;20417;-58
2023/05/06 01:40:36;;;;;;;19.73;13.82;;;11.50;99.90;;;;;;5052176;28;20543;-59
2023/05/06 01:43:04;;;;;;;16.08;12.38;;;11.50;99.90;;;;;;5054045;28;20516;-59
2023/05/06 01:45:34;;;;;;;13.93;11.18;;;11.60;99.90;;;;;;5036856;28;20032;-59
2023/05/06 01:48:00;;;;;;;22.48;14.45;;;11.50;99.90;;;;;;5053129;28;20041;-59
2023/05/06 01:50:26;;;;;;;16.77;11.80;;;11.60;99.90;;;;;;5054625;28;20524;-59
2023/05/06 01:52:59;;;;;;;18.83;13.27;;;11.60;99.90;;;;;;5053993;28;20070;-59
2023/05/06 01:55:25;;;;;;;20.92;14.52;;;11.60;99.90;;;;;;5052532;28;20123;-59
2023/05/06 01:57:52;;;;;;;20.23;13.43;;;11.60;99.90;;;;;;5053999;28;20072;-58
2023/05/06 02:00:18;;;;;;;16.92;13.40;;;11.60;99.90;;;;;;5054597;28;20136;-59
2023/05/06 02:02:44;;;;;;;17.52;12.57;;;11.60;99.90;;;;;;5052171;28;20069;-59
2023/05/06 02:05:09;;;;;;;19.00;13.32;;;11.60;99.90;;;;;;5054901;28;20045;-59
2023/05/06 02:07:35;;;;;;;18.75;14.10;;;11.60;99.90;;;;;;5054072;28;20036;-59
2023/05/06 02:10:01;;;;;;;21.17;13.38;;;11.60;99.90;;;;;;5052547;28;20041;-60
2023/05/06 02:12:26;;;;;;;20.05;14.27;;;11.60;99.90;;;;;;5052773;28;20052;-59
2023/05/06 02:14:52;;;;;;;21.02;14.57;;;11.60;99.90;;;;;;5053302;28;20048;-59
2023/05/06 02:17:18;;;;;;;15.38;11.27;;;11.50;99.90;;;;;;5035700;28;20036;-59
2023/05/06 02:19:43;;;;;;;16.88;12.90;;;11.50;99.90;;;;;;5053026;28;20041;-59
2023/05/06 02:22:10;;;;;;;17.85;13.00;;;11.50;99.90;;;;;;5052361;28;20041;-59
2023/05/06 02:24:35;;;;;;;17.95;13.77;;;11.40;99.90;;;;;;5053792;28;20041;-59
2023/05/06 02:27:01;;;;;;;17.63;13.93;;;11.40;99.90;;;;;;5053313;28;20044;-59
2023/05/06 02:29:26;;;;;;;21.98;15.52;;;11.30;99.90;;;;;;5035344;28;20041;-59
2023/05/06 02:31:52;;;;;;;18.05;13.68;;;11.30;99.90;;;;;;5052794;28;20524;-59
2023/05/06 02:34:18;;;;;;;15.75;12.80;;;11.20;99.90;;;;;;5053105;28;20084;-59
2023/05/06 02:36:43;;;;;;;13.32;10.40;;;11.20;99.90;;;;;;5051738;28;20394;-59
2023/05/06 02:39:09;;;;;;;13.07;10.30;;;11.20;99.90;;;;;;5052941;28;20036;-59
2023/05/06 02:41:35;;;;;;;15.40;10.93;;;11.10;99.90;;;;;;5052262;28;20208;-59
2023/05/06 02:44:00;;;;;;;15.55;10.77;;;11.10;99.90;;;;;;5035202;28;20064;-59
2023/05/06 02:46:26;;;;;;;19.10;13.93;;;11.10;99.90;;;;;;5052080;28;20036;-59
2023/05/06 02:48:52;;;;;;;20.65;14.38;;;11.10;99.90;;;;;;5052551;28;20048;-59
2023/05/06 02:51:17;;;;;;;16.63;10.98;;;11.10;99.90;;;;;;5035052;28;20044;-59
2023/05/06 02:53:43;;;;;;;14.50;11.05;;;11.10;99.90;;;;;;5035782;28;20110;-59
2023/05/06 02:56:08;;;;;;;21.40;15.13;;;11.10;99.90;;;;;;5052650;28;20045;-59
2023/05/06 02:58:34;;;;;;;17.77;13.05;;;11.00;99.90;;;;;;5052254;28;20052;-59
2023/05/06 03:01:00;;;;;;;14.20;11.60;;;11.10;99.90;;;;;;5053659;28;20033;-58
2023/05/06 03:03:25;;;;;;;19.33;13.93;;;11.10;99.90;;;;;;5053152;28;20389;-59
2023/05/06 03:05:51;;;;;;;16.27;12.25;;;11.10;99.90;;;;;;5051601;28;20037;-59
2023/05/06 03:08:17;;;;;;;18.40;13.20;;;11.10;99.90;;;;;;5052151;28;20037;-59
2023/05/06 03:10:42;;;;;;;14.45;11.80;;;11.20;99.90;;;;;;5051767;28;20053;-59
2023/05/06 03:13:08;;;;;;;15.93;12.10;;;11.20;99.90;;;;;;5053302;28;20128;-59
2023/05/06 03:15:33;;;;;;;16.98;12.25;;;11.10;99.90;;;;;;5052761;28;20041;-58
2023/05/06 03:17:59;;;;;;;13.20;10.02;;;11.20;99.90;;;;;;5035815;28;20045;-59
2023/05/06 03:20:26;;;;;;;20.35;14.02;;;11.10;99.90;;;;;;5051030;28;20076;-59
2023/05/06 03:22:52;;;;;;;19.42;14.32;;;11.10;99.90;;;;;;5053355;28;20049;-59
2023/05/06 03:25:17;;;;;;;14.73;11.25;;;11.10;99.90;;;;;;5035156;28;20079;-59
2023/05/06 03:27:43;;;;;;;17.40;13.38;;;11.20;99.90;;;;;;5052413;28;20466;-59
2023/05/06 03:30:09;;;;;;;19.83;14.05;;;11.10;99.90;;;;;;5035330;28;20076;-59
2023/05/06 03:32:36;;;;;;;16.63;12.70;;;11.10;99.90;;;;;;5050451;28;20048;-58
2023/05/06 03:35:03;;;;;;;16.25;11.27;;;11.10;99.90;;;;;;5053063;28;20045;-59
2023/05/06 03:37:29;;;;;;;18.40;13.35;;;11.20;99.90;;;;;;5051275;28;20048;-59
2023/05/06 03:39:55;;;;;;;16.55;13.13;;;11.10;99.90;;;;;;5052452;28;20045;-59
2023/05/06 03:42:21;;;;;;;19.50;13.43;;;11.10;99.90;;;;;;5034405;28;20543;-59
2023/05/06 03:44:46;;;;;;;13.48;10.65;;;11.10;99.90;;;;;;5051838;28;20045;-58
2023/05/06 03:47:12;;;;;;;11.23;8.63;;;11.10;99.90;;;;;;5052294;28;20377;-59
2023/05/06 03:49:37;;;;;;;15.23;11.05;;;11.10;99.90;;;;;;5052309;28;20494;-59
2023/05/06 03:52:04;;;;;;;20.40;14.02;;;11.10;99.90;;;;;;5052924;28;20044;-59
2023/05/06 03:54:30;;;;;;;14.85;12.02;;;11.10;99.90;;;;;;5049867;28;20500;-59
2023/05/06 03:56:55;;;;;;;18.83;14.13;;;11.10;99.90;;;;;;5034585;28;20433;-58
2023/05/06 03:59:21;;;;;;;14.45;11.27;;;11.10;99.90;;;;;;5050757;28;20043;-59
2023/05/06 04:01:47;;;;;;;14.20;10.70;;;11.10;99.90;;;;;;5043738;28;20029;-59
2023/05/06 04:04:12;;;;;;;16.08;11.38;;;11.10;99.90;;;;;;5042446;28;20087;-60
2023/05/06 04:06:38;;;;;;;17.60;13.57;;;11.00;99.90;;;;;;5050387;28;20098;-60
2023/05/06 04:09:05;;;;;;;16.52;11.93;;;11.10;99.90;;;;;;5049328;28;20363;-60
2023/05/06 04:11:31;;;;;;;21.50;13.75;;;11.10;99.90;;;;;;5033606;28;20520;-60
2023/05/06 04:13:56;;;;;;;18.02;12.32;;;11.10;99.90;;;;;;5051302;28;20045;-60
2023/05/06 04:16:22;;;;;;;17.90;12.93;;;11.20;99.90;;;;;;5050831;28;20041;-60
2023/05/06 04:18:48;;;;;;;20.23;13.70;;;11.10;99.90;;;;;;5052232;28;20460;-60
2023/05/06 04:21:14;;;;;;;17.23;12.73;;;11.20;99.90;;;;;;5043540;28;20045;-60
2023/05/06 04:23:40;;;;;;;16.92;13.02;;;11.10;99.90;;;;;;5047434;28;20037;-60
2023/05/06 04:26:06;;;;;;;18.90;13.07;;;11.10;99.90;;;;;;5050176;28;20041;-59
2023/05/06 04:28:32;;;;;;;19.60;14.15;;;11.20;99.90;;;;;;5031507;28;20045;-60
2023/05/06 04:30:57;;;;;;;17.70;13.65;;;11.10;99.90;;;;;;5048036;28;20070;-59
2023/05/06 04:33:24;;;;;;;16.75;12.27;;;11.20;99.90;;;;;;5048984;28;20373;-60
2023/05/06 04:35:55;;;;;;;17.30;11.80;;;11.20;99.90;;;;;;5048191;28;20155;-60
2023/05/06 04:38:21;;;;;;;25.15;16.85;;;11.20;99.90;;;;;;5047937;28;20450;-60
2023/05/06 04:40:48;;;;;;;23.90;16.42;;;11.20;99.90;;;;;;5048985;28;20485;-60
2023/05/06 04:43:15;;;;;;;23.70;17.00;;;11.20;99.90;;;;;;5047660;28;20081;-60
2023/05/06 04:45:50;;;;;;;23.63;17.50;;;11.20;99.90;;;;;;5049041;28;20045;-60
2023/05/06 04:48:16;;;;;;;;;;;11.30;99.90;;;;;;5049041;28;20453;-60
2023/05/06 04:50:42;;;;;;;19.15;14.10;;;11.20;99.90;;;;;;5047420;28;19967;-60
2023/05/06 04:53:08;;;;;;;20.75;14.75;;;11.20;99.90;;;;;;5048262;28;20458;-60
2023/05/06 04:55:34;;;;;;;25.98;17.63;;;11.20;99.90;;;;;;5048413;28;20547;-60
2023/05/06 04:57:59;;;;;;;20.38;13.98;;;11.30;99.90;;;;;;5047369;28;20056;-60
2023/05/06 05:00:26;;;;;;;20.45;14.10;;;11.30;99.90;;;;;;5047073;28;20411;-60
2023/05/06 05:02:52;;;;;;;21.00;14.02;;;11.20;99.90;;;;;;5031437;28;20489;-60
2023/05/06 05:05:18;;;;;;;25.15;16.42;;;11.30;99.90;;;;;;5046710;28;20091;-60
2023/05/06 05:07:44;;;;;;;22.20;16.40;;;11.30;99.90;;;;;;5047680;28;20460;-60
2023/05/06 05:10:09;;;;;;;18.65;14.80;;;11.30;99.90;;;;;;5051316;28;20136;-60
2023/05/06 05:12:35;;;;;;;20.73;15.27;;;11.30;99.90;;;;;;5050418;28;20056;-60
2023/05/06 05:15:01;;;;;;;21.20;15.07;;;11.30;99.90;;;;;;5035344;28;20045;-60
2023/05/06 05:17:28;;;;;;;20.73;15.65;;;11.30;99.90;;;;;;5051646;28;20116;-60
2023/05/06 05:19:53;;;;;;;20.33;14.70;;;11.30;99.90;;;;;;5050796;28;20053;-60
2023/05/06 05:22:19;;;;;;;23.33;16.83;;;11.30;99.90;;;;;;5051813;28;20401;-60
2023/05/06 05:24:45;;;;;;;19.98;15.32;;;11.30;99.90;;;;;;5053293;28;20493;-60
2023/05/06 05:27:11;;;;;;;22.02;16.77;;;11.30;99.90;;;;;;5051230;28;20037;-60
2023/05/06 05:29:37;;;;;;;18.58;13.23;;;11.30;99.90;;;;;;5050652;28;20079;-60
2023/05/06 05:32:02;;;;;;;26.92;18.95;;;11.30;99.90;;;;;;5050792;28;20029;-60
2023/05/06 05:34:29;;;;;;;24.70;17.85;;;11.40;99.90;;;;;;5051317;28;20041;-60
2023/05/06 05:36:56;;;;;;;30.13;18.23;;;11.40;99.90;;;;;;5051414;28;20041;-60
2023/05/06 05:39:22;;;;;;;23.33;17.15;;;11.50;99.90;;;;;;5051637;28;20053;-60
2023/05/06 05:41:47;;;;;;;21.00;16.45;;;11.50;99.90;;;;;;5035227;28;20041;-60
2023/05/06 05:44:13;;;;;;;24.08;17.70;;;11.50;99.90;;;;;;5033459;28;20048;-61
2023/05/06 05:46:40;;;;;;;27.33;17.90;;;11.50;99.90;;;;;;5050130;28;20087;-61
2023/05/06 05:49:05;;;;;;;22.10;15.48;;;11.70;99.90;;;;;;5052525;28;20044;-60
2023/05/06 05:51:31;;;;;;;23.20;16.58;;;11.80;99.90;;;;;;5050948;28;20033;-60
2023/05/06 05:53:57;;;;;;;20.88;14.50;;;11.90;99.90;;;;;;5048769;28;20040;-61
2023/05/06 05:56:22;;;;;;;21.20;15.63;;;12.00;99.90;;;;;;5054054;28;20071;-61
2023/05/06 05:58:48;;;;;;;23.02;16.58;;;12.00;99.90;;;;;;5036450;28;20402;-61
2023/05/06 06:01:14;;;;;;;15.45;11.68;;;12.10;99.90;;;;;;5035733;28;20041;-61
2023/05/06 06:03:40;;;;;;;19.67;13.30;;;12.20;99.90;;;;;;5053977;28;20047;-61
2023/05/06 06:06:06;;;;;;;17.67;11.63;;;12.20;99.90;;;;;;5052621;28;20037;-60
2023/05/06 06:08:32;;;;;;;17.35;12.68;;;12.20;99.90;;;;;;5052326;28;20037;-61
2023/05/06 06:10:58;;;;;;;18.17;12.15;;;12.20;99.90;;;;;;5053471;28;20045;-60
2023/05/06 06:13:24;;;;;;;18.77;12.80;;;12.30;99.90;;;;;;5052888;28;20111;-61
2023/05/06 06:15:49;;;;;;;20.23;11.80;;;12.30;99.90;;;;;;5054120;28;20043;-61
2023/05/06 06:18:15;;;;;;;18.92;12.75;;;12.30;99.90;;;;;;5054784;28;20079;-61
2023/05/06 06:20:41;;;;;;;18.35;12.43;;;12.30;99.90;;;;;;5052498;28;20044;-61
2023/05/06 06:23:06;;;;;;;14.20;11.07;;;12.30;99.90;;;;;;5052401;28;20167;-61
2023/05/06 06:25:32;;;;;;;18.10;11.82;;;12.40;99.90;;;;;;5052461;28;20072;-61
2023/05/06 06:27:58;;;;;;;16.55;11.05;;;12.30;99.90;;;;;;5052954;28;20044;-61
2023/05/06 06:30:23;;;;;;;13.60;9.07;;;12.30;99.90;;;;;;5052946;28;20119;-61
2023/05/06 06:32:50;;;;;;;13.38;9.45;;;12.40;99.90;;;;;;5036492;28;20505;-61
2023/05/06 06:35:17;;;;;;;13.98;9.30;;;12.40;99.90;;;;;;5051904;28;20052;-61
2023/05/06 06:37:43;;;;;;;12.55;9.05;;;12.50;99.90;;;;;;5053003;28;20049;-61
2023/05/06 06:40:10;;;;;;;13.63;9.95;;;12.50;99.90;;;;;;5036270;28;20029;-61
2023/05/06 06:42:36;;;;;;;46.00;31.80;;;12.50;99.90;;;;;;5050760;28;20099;-61
2023/05/06 06:45:02;;;;;;;28.55;21.65;;;12.60;99.90;;;;;;5036461;28;20041;-61
2023/05/06 06:47:28;;;;;;;25.45;17.42;;;12.70;99.90;;;;;;5053691;28;20385;-61
2023/05/06 06:49:53;;;;;;;15.50;11.32;;;12.80;99.90;;;;;;5052055;28;20095;-61
2023/05/06 06:52:19;;;;;;;103.55;67.70;;;12.80;99.90;;;;;;5052366;28;20048;-61
2023/05/06 06:54:45;;;;;;;24.90;16.80;;;12.90;99.90;;;;;;5036039;28;20045;-61
2023/05/06 06:57:10;;;;;;;42.05;29.08;;;12.90;99.90;;;;;;5049176;28;20049;-61
2023/05/06 06:59:36;;;;;;;25.70;20.85;;;13.00;99.90;;;;;;5052283;28;20049;-60
2023/05/06 07:02:02;;;;;;;15.18;11.15;;;13.00;99.90;;;;;;5054040;28;20129;-60
2023/05/06 07:04:28;;;;;;;15.77;9.32;;;13.00;99.90;;;;;;5052801;28;20044;-61
2023/05/06 07:06:53;;;;;;;11.27;7.43;;;13.10;99.90;;;;;;5053684;28;20036;-60
2023/05/06 07:09:19;;;;;;;12.57;8.02;;;13.10;99.90;;;;;;5069167;28;20086;-61
2023/05/06 07:11:45;;;;;;;9.07;6.25;;;13.20;99.90;;;;;;5068052;28;20052;-60
2023/05/06 07:14:11;;;;;;;12.40;7.53;;;13.30;99.90;;;;;;5068987;28;20186;-60
2023/05/06 07:16:37;;;;;;;14.73;7.75;;;13.30;99.90;;;;;;5068449;28;20041;-61
2023/05/06 07:19:02;;;;;;;11.77;7.95;;;13.40;99.90;;;;;;5052637;28;20037;-60
2023/05/06 07:21:31;;;;;;;9.18;6.05;;;13.30;99.90;;;;;;5052395;28;20040;-61
2023/05/06 07:23:59;;;;;;;10.15;7.25;;;13.50;99.90;;;;;;5068694;28;20123;-60
2023/05/06 07:26:25;;;;;;;9.10;6.45;;;13.50;99.90;;;;;;5052205;28;20037;-60
2023/05/06 07:28:51;;;;;;;10.55;6.38;;;13.70;99.90;;;;;;5053298;28;20040;-61
2023/05/06 07:31:19;;;;;;;9.23;6.18;;;13.80;99.90;;;;;;5067110;28;20059;-61
2023/05/06 07:33:48;;;;;;;10.73;6.20;;;13.90;99.90;;;;;;5051415;28;20064;-61
2023/05/06 07:36:14;;;;;;;8.45;5.22;;;13.90;99.90;;;;;;5068527;28;20037;-61
2023/05/06 07:38:40;;;;;;;8.00;5.65;;;13.90;99.90;;;;;;5052201;28;20885;-61
2023/05/06 07:41:06;;;;;;;8.32;5.78;;;14.00;99.90;;;;;;5052919;28;20051;-61
2023/05/06 07:43:31;;;;;;;8.15;6.13;;;14.10;99.90;;;;;;5052173;28;20440;-61
2023/05/06 07:46:01;;;;;;;23.77;17.33;;;14.40;99.90;;;;;;5051342;28;20466;-61
2023/05/06 07:48:31;;;;;;;12.43;8.40;;;14.50;99.90;;;;;;5034469;28;20044;-61
2023/05/06 07:50:58;;;;;;;12.48;8.63;;;14.70;99.90;;;;;;5053113;28;20037;-60
2023/05/06 07:53:23;;;;;;;10.48;6.10;;;14.80;99.90;;;;;;5066980;28;20037;-60
2023/05/06 07:55:51;;;;;;;9.43;5.65;;;15.00;99.90;;;;;;5068458;28;20037;-60
2023/05/06 07:58:17;;;;;;;9.02;5.07;;;15.10;99.90;;;;;;5067879;28;20051;-60
2023/05/06 08:00:43;;;;;;;8.15;5.55;;;15.20;99.90;;;;;;5067422;28;20056;-60
2023/05/06 08:03:08;;;;;;;7.60;4.90;;;15.20;99.90;;;;;;5067770;28;20474;-61
2023/05/06 08:05:34;;;;;;;8.85;6.07;;;15.30;99.90;;;;;;5067283;28;20063;-61
2023/05/06 08:08:00;;;;;;;8.23;5.55;;;15.40;99.90;;;;;;5067403;28;20462;-60
2023/05/06 08:10:25;;;;;;;9.40;5.15;;;15.50;99.90;;;;;;5067263;28;20132;-60
2023/05/06 08:12:51;;;;;;;12.70;6.32;;;15.50;99.90;;;;;;5068802;28;20179;-60
2023/05/06 08:15:17;;;;;;;9.13;5.45;;;15.50;99.90;;;;;;5051472;28;20037;-60
2023/05/06 08:17:42;;;;;;;8.93;5.95;;;15.70;99.90;;;;;;5067904;28;20397;-60
2023/05/06 08:20:09;;;;;;;7.90;5.07;;;15.80;99.90;;;;;;5067718;28;20542;-61
2023/05/06 08:22:34;;;;;;;8.23;4.80;;;15.90;99.90;;;;;;5051072;28;20175;-61
2023/05/06 08:25:00;;;;;;;10.10;5.53;;;16.00;99.90;;;;;;5052262;28;20124;-60
2023/05/06 08:27:26;;;;;;;8.02;5.15;;;16.00;99.90;;;;;;5051772;28;20481;-61
2023/05/06 08:30:01;;;;;;;9.00;5.75;;;16.10;99.90;;;;;;5050005;28;20040;-61
2023/05/06 08:32:26;;;;;;;7.25;5.15;;;16.30;99.90;;;;;;5033280;28;20488;-61
2023/05/06 08:34:52;;;;;;;7.90;5.10;;;16.40;99.90;;;;;;5066896;28;20084;-60
2023/05/06 08:37:18;;;;;;;8.25;4.53;;;16.40;99.90;;;;;;5050573;28;20043;-61
2023/05/06 08:39:44;;;;;;;7.90;4.60;;;16.50;99.90;;;;;;5050720;28;20119;-60
2023/05/06 08:42:10;;;;;;;7.68;4.28;;;16.60;99.90;;;;;;5051309;28;20893;-60
2023/05/06 08:44:37;;;;;;;8.02;4.82;;;16.60;99.90;;;;;;5033715;28;20551;-60
2023/05/06 08:47:02;;;;;;;7.35;4.68;;;16.70;99.90;;;;;;5050301;28;20064;-60
2023/05/06 08:49:28;;;;;;;7.22;5.22;;;16.70;99.90;;;;;;5050758;28;20114;-60
2023/05/06 08:51:55;;;;;;;8.88;5.60;;;16.80;99.90;;;;;;5034204;28;20103;-60
2023/05/06 08:54:24;;;;;;;9.23;5.25;;;16.80;99.90;;;;;;5066795;28;20159;-60
2023/05/06 08:56:55;;;;;;;8.98;5.18;;;16.80;99.90;;;;;;5051305;28;20115;-60
2023/05/06 08:59:24;;;;;;;8.38;5.95;;;16.90;99.90;;;;;;5066121;28;20037;-60
2023/05/06 09:01:51;;;;;;;10.02;5.88;;;16.90;99.90;;;;;;5052000;28;20037;-60
2023/05/06 09:04:17;;;;;;;8.50;5.13;;;17.00;99.90;;;;;;5051003;28;20036;-60
2023/05/06 09:06:43;;;;;;;9.30;5.60;;;17.10;99.90;;;;;;5051785;28;20124;-60
2023/05/06 09:09:11;;;;;;;8.70;5.43;;;17.10;99.90;;;;;;5051971;28;20041;-60
2023/05/06 09:11:41;;;;;;;8.23;5.72;;;17.20;99.90;;;;;;5049452;28;20225;-60
2023/05/06 09:14:09;;;;;;;9.57;6.55;;;17.30;99.90;;;;;;5033755;28;20505;-60
2023/05/06 09:16:36;;;;;;;11.18;6.45;;;17.30;99.90;;;;;;5049752;28;20051;-61
2023/05/06 09:19:02;;;;;;;10.07;7.25;;;17.40;99.90;;;;;;5049632;28;20506;-60
2023/05/06 09:21:35;;;;;;;8.32;5.95;;;17.50;99.90;;;;;;5049927;28;20036;-60
2023/05/06 09:24:02;;;;;;;11.75;7.10;;;17.50;99.90;;;;;;5050192;28;20041;-60
2023/05/06 09:26:30;;;;;;;9.45;6.32;;;17.60;99.90;;;;;;5049588;28;20040;-60
2023/05/06 09:28:57;;;;;;;12.20;7.25;;;17.60;99.90;;;;;;5050489;28;20044;-60
2023/05/06 09:31:24;;;;;;;11.70;7.38;;;17.70;99.90;;;;;;5049241;28;20040;-60
2023/05/06 09:33:51;;;;;;;9.85;7.32;;;17.70;99.90;;;;;;5050269;28;20116;-60
2023/05/06 09:36:17;;;;;;;10.73;7.40;;;17.80;99.90;;;;;;5033419;28;20537;-60
2023/05/06 09:38:43;;;;;;;10.73;6.95;;;17.90;99.90;;;;;;5032968;28;20081;-60
2023/05/06 09:41:10;;;;;;;11.48;7.75;;;17.90;99.90;;;;;;5050981;28;20513;-60
2023/05/06 09:43:36;;;;;;;12.05;7.65;;;18.00;99.90;;;;;;5066607;28;20756;-60
2023/05/06 09:46:04;;;;;;;11.38;7.03;;;18.10;99.90;;;;;;5066180;28;20051;-60
2023/05/06 09:48:30;;;;;;;10.13;6.80;;;18.20;99.90;;;;;;5066391;28;20452;-60
2023/05/06 09:50:57;;;;;;;12.60;8.02;;;18.20;99.90;;;;;;5051453;28;20033;-60
2023/05/06 09:53:24;;;;;;;10.25;7.85;;;18.30;99.90;;;;;;5065602;28;20067;-60
2023/05/06 09:55:51;;;;;;;10.10;8.05;;;18.50;99.90;;;;;;5054030;28;20397;-60
2023/05/06 09:58:19;;;;;;;10.70;7.47;;;18.50;99.90;;;;;;5054746;28;20486;-60
2023/05/06 10:00:51;;;;;;;11.90;8.40;;;18.60;99.90;;;;;;5052702;28;20045;-60
2023/05/06 10:03:20;;;;;;;10.18;8.00;;;18.70;99.90;;;;;;5053254;28;20047;-60
2023/05/06 10:05:46;;;;;;;12.95;8.40;;;18.70;99.90;;;;;;5054769;28;20037;-60
2023/05/06 10:08:17;;;;;;;10.77;7.55;;;18.70;99.90;;;;;;5053890;28;20163;-60
2023/05/06 10:10:43;;;;;;;11.20;7.50;;;18.90;99.90;;;;;;5052881;28;20049;-60
2023/05/06 10:13:09;;;;;;;11.82;9.27;;;19.00;99.90;;;;;;5054483;28;20036;-60
2023/05/06 10:15:37;;;;;;;12.73;9.05;;;19.00;99.90;;;;;;5051997;28;20845;-60
2023/05/06 10:18:04;;;;;;;12.88;9.75;;;19.10;99.90;;;;;;5054755;28;20040;-60
2023/05/06 10:20:32;;;;;;;11.73;9.05;;;19.20;99.90;;;;;;5051967;28;20041;-60
2023/05/06 10:23:28;;;;;;;13.30;10.40;;;19.30;99.90;;;;;;5053180;28;20080;-60
2023/05/06 10:26:06;;;;;;;13.80;10.15;;;19.40;99.90;;;;;;5054653;28;20573;-60
2023/05/06 10:28:38;;;;;;;13.73;10.95;;;19.30;99.90;;;;;;5051141;28;20521;-60
2023/05/06 10:31:06;;;;;;;12.35;9.20;;;19.20;99.90;;;;;;5054511;28;20033;-60
2023/05/06 10:33:32;;;;;;;14.05;9.48;;;19.00;99.90;;;;;;5068981;28;20091;-60
2023/05/06 10:36:19;;;;;;;12.85;9.60;;;18.80;99.90;;;;;;5052459;28;20036;-60
2023/05/06 10:38:49;;;;;;;13.52;9.25;;;18.70;99.90;;;;;;5052738;28;20049;-60
2023/05/06 10:41:15;;;;;;;13.48;10.05;;;18.60;99.90;;;;;;5052806;28;20044;-60
2023/05/06 10:43:44;;;;;;;15.68;10.95;;;18.60;99.90;;;;;;5035190;28;20045;-60
2023/05/06 10:46:17;;;;;;;13.50;10.63;;;18.60;99.90;;;;;;5052935;28;20037;-60
2023/05/06 10:49:05;;;;;;;14.55;10.88;;;18.70;99.90;;;;;;5051683;28;20045;-60
2023/05/06 10:51:32;;;;;;;14.48;9.70;;;18.90;99.90;;;;;;5052367;28;20040;-60
2023/05/06 10:54:03;;;;;;;13.18;10.50;;;18.90;99.90;;;;;;5052767;28;20486;-60
2023/05/06 10:56:37;;;;;;;15.05;10.38;;;19.10;99.90;;;;;;5051460;28;20378;-60
2023/05/06 10:59:08;;;;;;;14.13;10.10;;;19.20;99.90;;;;;;5053867;28;20045;-60
2023/05/06 11:01:38;;;;;;;14.98;9.88;;;19.20;99.90;;;;;;5053279;28;20044;-60
2023/05/06 11:04:09;;;;;;;13.18;10.00;;;19.30;99.90;;;;;;5051385;28;20402;-60
2023/05/06 11:06:45;;;;;;;12.65;8.38;;;19.20;99.90;;;;;;5052475;28;20029;-59
2023/05/06 11:09:22;;;;;;;13.38;8.75;;;19.20;99.90;;;;;;5050962;28;20033;-60
2023/05/06 11:12:01;;;;;;;13.60;9.10;;;19.10;99.90;;;;;;5051696;28;20550;-60
2023/05/06 11:14:35;;;;;;;12.05;8.55;;;18.90;99.90;;;;;;5051810;28;20077;-60
2023/05/06 11:17:27;;;;;;;13.30;9.65;;;18.80;99.90;;;;;;5051639;28;20390;-59
2023/05/06 11:20:21;;;;;;;12.45;9.50;;;18.70;99.90;;;;;;5053426;28;20044;-60
2023/05/06 11:22:47;;;;;;;12.40;9.15;;;18.60;99.90;;;;;;5052301;28;20037;-60
2023/05/06 11:25:13;;;;;;;11.98;8.63;;;18.60;99.90;;;;;;5052786;28;20486;-60
2023/05/06 11:27:39;;;;;;;13.18;9.68;;;18.60;99.90;;;;;;5052971;28;20037;-60
2023/05/06 11:30:06;;;;;;;11.60;8.68;;;18.70;99.90;;;;;;5053449;28;20045;-60
2023/05/06 11:32:33;;;;;;;12.45;8.50;;;18.80;99.90;;;;;;5051004;28;20049;-59
2023/05/06 11:34:58;;;;;;;12.82;9.52;;;18.90;99.90;;;;;;5051911;28;20094;-59
2023/05/06 11:37:26;;;;;;;16.10;11.70;;;18.90;99.90;;;;;;5050872;28;20049;-58
2023/05/06 11:39:51;;;;;;;13.85;10.50;;;18.90;99.90;;;;;;5034500;28;20040;-58
2023/05/06 11:42:24;;;;;;;15.75;10.88;;;18.90;99.90;;;;;;5051859;28;20048;-58
2023/05/06 11:44:54;;;;;;;10.85;8.15;;;18.90;99.90;;;;;;5052597;28;20041;-58
2023/05/06 11:47:22;;;;;;;9.93;7.50;;;18.90;99.90;;;;;;5068015;28;20047;-58
2023/05/06 11:49:51;;;;;;;9.90;7.45;;;18.80;99.90;;;;;;5068358;28;20051;-58
2023/05/06 11:52:19;;;;;;;12.45;8.45;;;18.70;99.90;;;;;;5051790;28;20045;-59
2023/05/06 11:54:45;;;;;;;11.90;8.38;;;18.60;99.90;;;;;;5051144;28;20036;-58
2023/05/06 11:57:11;;;;;;;11.38;8.15;;;18.60;99.90;;;;;;5052687;28;20088;-58
2023/05/06 11:59:38;;;;;;;12.77;8.35;;;18.50;99.90;;;;;;5050327;28;20122;-59
2023/05/06 12:02:06;;;;;;;12.25;8.55;;;18.40;99.90;;;;;;5046915;28;20037;-60
2023/05/06 12:04:41;;;;;;;15.45;9.02;;;18.30;99.90;;;;;;5030739;28;20049;-59
2023/05/06 12:07:08;;;;;;;13.52;7.60;;;18.30;99.90;;;;;;5031040;28;20041;-59
2023/05/06 12:09:36;;;;;;;8.95;7.07;;;18.20;99.90;;;;;;5030844;28;20148;-59
2023/05/06 12:12:02;;;;;;;9.32;6.38;;;18.30;99.90;;;;;;5047818;28;20139;-59
2023/05/06 12:14:28;;;;;;;8.20;6.05;;;18.30;99.90;;;;;;5040545;28;20079;-59
2023/05/06 12:16:55;;;;;;;10.07;6.45;;;18.30;99.90;;;;;;5050986;28;20080;-59
2023/05/06 12:19:21;;;;;;;9.70;6.22;;;18.40;99.90;;;;;;5067461;28;20037;-59
2023/05/06 12:21:47;;;;;;;9.45;5.90;;;18.40;99.90;;;;;;5067395;28;20056;-59
2023/05/06 12:24:12;;;;;;;10.30;6.53;;;18.60;99.90;;;;;;5052321;28;20474;-59
2023/05/06 12:26:48;;;;;;;10.27;7.35;;;18.60;99.90;;;;;;5052092;28;20033;-59
2023/05/06 12:29:16;;;;;;;11.90;7.63;;;18.80;99.90;;;;;;5051480;28;20041;-59
2023/05/06 12:31:46;;;;;;;11.93;7.93;;;18.90;99.90;;;;;;5050781;28;20056;-60
2023/05/06 12:34:13;;;;;;;11.40;6.88;;;19.20;99.90;;;;;;5050258;28;20053;-59